sensor_id;sensor_type;location;lat;lon;timestamp;pressure;altitude;pressure_sealevel;temperature;humidity
31595;BME280;18200;48.726;8.892;2023-04-22T00:02:03;96124.38;;;25.63;33.45
31595;BME280;18200;48.726;8.892;2023-04-22T00:06:04;96124.94;;;25.67;32.87
31595;BME280;18200;48.726;8.892;2023-04-22T00:10:06;96125.72;;;25.35;33.46
31595;BME280;18200;48.726;8.892;2023-04-22T00:14:07;96130.72;;;24.80;34.73
31595;BME280;18200;48.726;8.892;2023-04-22T00:18:07;96126.00;;;25.46;33.13
31595;BME280;18200;48.726;8.892;2023-04-22T00:22:12;96124.66;;;25.42;33.22
31595;BME280;18200;48.726;8.892;2023-04-22T00:26:13;96121.53;;;25.25;33.66
31595;BME280;18200;48.726;8.892;2023-04-22T00:30:14;96120.22;;;25.44;33.63
31595;BME280;18200;48.726;8.892;2023-04-22T00:34:14;96124.97;;;25.34;34.05
31595;BME280;18200;48.726;8.892;2023-04-22T00:38:16;96118.69;;;25.43;33.76
31595;BME280;18200;48.726;8.892;2023-04-22T00:42:17;96118.28;;;25.59;33.33
31595;BME280;18200;48.726;8.892;2023-04-22T00:46:18;96112.09;;;25.17;34.49
31595;BME280;18200;48.726;8.892;2023-04-22T00:50:19;96121.09;;;24.85;34.17
31595;BME280;18200;48.726;8.892;2023-04-22T00:54:19;96123.75;;;25.03;34.24
31595;BME280;18200;48.726;8.892;2023-04-22T00:58:21;96125.91;;;24.99;34.58
31595;BME280;18200;48.726;8.892;2023-04-22T01:02:23;96117.59;;;25.17;33.95
31595;BME280;18200;48.726;8.892;2023-04-22T01:06:25;96112.72;;;25.12;33.34
31595;BME280;18200;48.726;8.892;2023-04-22T01:10:27;96114.72;;;24.70;34.26
31595;BME280;18200;48.726;8.892;2023-04-22T01:14:27;96117.31;;;25.15;33.81
31595;BME280;18200;48.726;8.892;2023-04-22T01:18:28;96116.28;;;25.36;32.84
31595;BME280;18200;48.726;8.892;2023-04-22T01:22:34;96110.25;;;24.81;33.76
31595;BME280;18200;48.726;8.892;2023-04-22T01:26:36;96116.59;;;24.45;34.65
31595;BME280;18200;48.726;8.892;2023-04-22T01:30:37;96115.31;;;24.74;34.19
31595;BME280;18200;48.726;8.892;2023-04-22T01:34:37;96118.06;;;24.83;33.90
31595;BME280;18200;48.726;8.892;2023-04-22T01:38:38;96118.06;;;24.64;34.16
31595;BME280;18200;48.726;8.892;2023-04-22T01:42:39;96129.06;;;24.64;34.03
31595;BME280;18200;48.726;8.892;2023-04-22T01:46:40;96122.59;;;24.86;34.43
31595;BME280;18200;48.726;8.892;2023-04-22T01:50:41;96129.72;;;25.01;33.77
31595;BME280;18200;48.726;8.892;2023-04-22T01:54:41;96117.75;;;24.72;34.70
31595;BME280;18200;48.726;8.892;2023-04-22T01:58:43;96119.16;;;25.09;34.16
31595;BME280;18200;48.726;8.892;2023-04-22T02:02:44;96121.13;;;24.66;34.26
31595;BME280;18200;48.726;8.892;2023-04-22T02:06:44;96123.94;;;24.39;34.36
31595;BME280;18200;48.726;8.892;2023-04-22T02:10:45;96125.34;;;24.86;34.38
31595;BME280;18200;48.726;8.892;2023-04-22T02:14:45;96129.03;;;24.83;34.06
31595;BME280;18200;48.726;8.892;2023-04-22T02:18:45;96125.75;;;25.02;33.39
31595;BME280;18200;48.726;8.892;2023-04-22T02:22:46;96127.78;;;24.93;33.63
31595;BME280;18200;48.726;8.892;2023-04-22T02:26:46;96125.50;;;24.91;33.63
31595;BME280;18200;48.726;8.892;2023-04-22T02:30:48;96135.47;;;24.80;33.90
31595;BME280;18200;48.726;8.892;2023-04-22T02:34:48;96131.50;;;24.62;34.06
31595;BME280;18200;48.726;8.892;2023-04-22T02:38:49;96123.34;;;24.35;34.76
31595;BME280;18200;48.726;8.892;2023-04-22T02:42:49;96128.53;;;24.24;34.25
31595;BME280;18200;48.726;8.892;2023-04-22T02:46:50;96128.84;;;24.17;35.00
31595;BME280;18200;48.726;8.892;2023-04-22T02:50:51;96123.63;;;24.46;34.46
31595;BME280;18200;48.726;8.892;2023-04-22T02:54:51;96114.75;;;24.51;33.93
31595;BME280;18200;48.726;8.892;2023-04-22T02:58:52;96115.13;;;23.90;34.95
31595;BME280;18200;48.726;8.892;2023-04-22T03:02:52;96123.63;;;23.56;35.79
31595;BME280;18200;48.726;8.892;2023-04-22T03:06:56;96120.31;;;23.61;35.40
31595;BME280;18200;48.726;8.892;2023-04-22T03:10:56;96116.66;;;23.91;34.98
31595;BME280;18200;48.726;8.892;2023-04-22T03:14:57;96119.72;;;24.02;35.18
31595;BME280;18200;48.726;8.892;2023-04-22T03:19:01;96121.38;;;23.90;34.78
31595;BME280;18200;48.726;8.892;2023-04-22T03:23:01;96133.28;;;24.06;34.43
31595;BME280;18200;48.726;8.892;2023-04-22T03:27:02;96131.72;;;23.59;35.36
31595;BME280;18200;48.726;8.892;2023-04-22T03:31:03;96139.56;;;24.06;35.11
31595;BME280;18200;48.726;8.892;2023-04-22T03:35:04;96134.81;;;24.25;33.86
31595;BME280;18200;48.726;8.892;2023-04-22T03:39:05;96125.19;;;23.93;34.25
31595;BME280;18200;48.726;8.892;2023-04-22T03:43:07;96130.38;;;24.18;33.95
31595;BME280;18200;48.726;8.892;2023-04-22T03:47:08;96128.56;;;24.06;34.36
31595;BME280;18200;48.726;8.892;2023-04-22T03:51:14;96130.06;;;23.71;34.48
31595;BME280;18200;48.726;8.892;2023-04-22T03:55:15;96129.16;;;23.74;34.55
31595;BME280;18200;48.726;8.892;2023-04-22T03:59:17;96119.09;;;23.71;34.31
31595;BME280;18200;48.726;8.892;2023-04-22T04:03:18;96123.19;;;23.66;34.64
31595;BME280;18200;48.726;8.892;2023-04-22T04:07:21;96128.22;;;23.59;34.20
31595;BME280;18200;48.726;8.892;2023-04-22T04:11:24;96125.91;;;23.39;34.44
31595;BME280;18200;48.726;8.892;2023-04-22T04:15:24;96121.72;;;22.77;36.00
31595;BME280;18200;48.726;8.892;2023-04-22T04:19:26;96128.47;;;22.94;35.45
31595;BME280;18200;48.726;8.892;2023-04-22T04:23:26;96122.47;;;23.17;34.98
31595;BME280;18200;48.726;8.892;2023-04-22T04:27:27;96121.41;;;23.14;35.31
31595;BME280;18200;48.726;8.892;2023-04-22T04:31:29;96130.78;;;22.95;35.29
31595;BME280;18200;48.726;8.892;2023-04-22T04:35:32;96128.25;;;23.10;34.99
31595;BME280;18200;48.726;8.892;2023-04-22T04:39:38;96132.59;;;22.98;35.69
31595;BME280;18200;48.726;8.892;2023-04-22T04:43:39;96130.91;;;23.32;34.95
31595;BME280;18200;48.726;8.892;2023-04-22T04:47:52;96117.22;;;23.41;34.61
31595;BME280;18200;48.726;8.892;2023-04-22T04:51:58;96120.25;;;23.43;34.76
31595;BME280;18200;48.726;8.892;2023-04-22T04:56:00;96126.63;;;23.31;34.71
31595;BME280;18200;48.726;8.892;2023-04-22T05:00:01;96113.81;;;23.28;35.03
31595;BME280;18200;48.726;8.892;2023-04-22T05:04:03;96118.97;;;23.17;35.20
31595;BME280;18200;48.726;8.892;2023-04-22T05:08:04;96127.19;;;23.26;34.89
31595;BME280;18200;48.726;8.892;2023-04-22T05:16:09;96121.78;;;23.35;34.67
31595;BME280;18200;48.726;8.892;2023-04-22T05:20:10;96129.75;;;23.51;34.65
31595;BME280;18200;48.726;8.892;2023-04-22T05:24:12;96136.25;;;23.35;34.54
31595;BME280;18200;48.726;8.892;2023-04-22T05:28:14;96134.91;;;23.49;34.35
31595;BME280;18200;48.726;8.892;2023-04-22T05:32:21;96145.47;;;23.20;34.84
31595;BME280;18200;48.726;8.892;2023-04-22T05:36:22;96141.28;;;23.37;34.67
31595;BME280;18200;48.726;8.892;2023-04-22T05:40:22;96141.28;;;23.46;34.48
31595;BME280;18200;48.726;8.892;2023-04-22T05:44:23;96135.34;;;22.98;35.52
31595;BME280;18200;48.726;8.892;2023-04-22T05:48:23;96135.00;;;22.87;35.86
31595;BME280;18200;48.726;8.892;2023-04-22T05:52:31;96138.31;;;23.22;35.42
31595;BME280;18200;48.726;8.892;2023-04-22T05:56:39;96144.66;;;23.50;35.21
31595;BME280;18200;48.726;8.892;2023-04-22T06:00:39;96150.19;;;23.95;33.95
31595;BME280;18200;48.726;8.892;2023-04-22T06:04:53;96149.28;;;23.80;34.41
31595;BME280;18200;48.726;8.892;2023-04-22T06:08:55;96151.09;;;23.74;35.12
31595;BME280;18200;48.726;8.892;2023-04-22T06:12:55;96147.03;;;24.15;34.69
31595;BME280;18200;48.726;8.892;2023-04-22T06:16:55;96154.13;;;24.48;33.86
31595;BME280;18200;48.726;8.892;2023-04-22T06:20:56;96148.00;;;25.13;33.02
31595;BME280;18200;48.726;8.892;2023-04-22T06:24:56;96148.66;;;24.48;34.31
31595;BME280;18200;48.726;8.892;2023-04-22T06:28:57;96156.16;;;24.99;33.73
31595;BME280;18200;48.726;8.892;2023-04-22T06:32:58;96155.41;;;25.64;32.97
31595;BME280;18200;48.726;8.892;2023-04-22T06:36:59;96151.41;;;25.88;32.24
31595;BME280;18200;48.726;8.892;2023-04-22T06:40:59;96156.66;;;25.77;32.44
31595;BME280;18200;48.726;8.892;2023-04-22T06:45:05;96152.50;;;25.02;34.41
31595;BME280;18200;48.726;8.892;2023-04-22T06:49:17;96150.28;;;25.15;34.21
31595;BME280;18200;48.726;8.892;2023-04-22T06:53:41;96143.34;;;25.61;33.37
31595;BME280;18200;48.726;8.892;2023-04-22T06:57:41;96149.69;;;25.11;34.78
31595;BME280;18200;48.726;8.892;2023-04-22T07:01:41;96142.38;;;25.64;33.25
31595;BME280;18200;48.726;8.892;2023-04-22T07:05:42;96136.66;;;24.88;34.68
31595;BME280;18200;48.726;8.892;2023-04-22T07:09:43;96134.41;;;25.66;33.23
31595;BME280;18200;48.726;8.892;2023-04-22T07:13:43;96125.44;;;26.04;33.01
31595;BME280;18200;48.726;8.892;2023-04-22T07:17:44;96130.59;;;25.40;34.19
31595;BME280;18200;48.726;8.892;2023-04-22T07:21:44;96131.97;;;25.68;34.40
31595;BME280;18200;48.726;8.892;2023-04-22T07:25:45;96134.44;;;26.43;33.82
31595;BME280;18200;48.726;8.892;2023-04-22T07:29:45;96137.41;;;26.83;32.80
31595;BME280;18200;48.726;8.892;2023-04-22T07:33:45;96140.91;;;27.33;32.60
31595;BME280;18200;48.726;8.892;2023-04-22T07:37:46;96141.59;;;27.83;30.89
31595;BME280;18200;48.726;8.892;2023-04-22T07:41:46;96138.56;;;28.01;30.98
31595;BME280;18200;48.726;8.892;2023-04-22T07:45:46;96142.56;;;28.20;30.09
31595;BME280;18200;48.726;8.892;2023-04-22T07:49:47;96156.72;;;28.27;29.82
31595;BME280;18200;48.726;8.892;2023-04-22T07:53:48;96152.78;;;28.85;28.93
31595;BME280;18200;48.726;8.892;2023-04-22T07:57:48;96159.69;;;29.01;28.13
31595;BME280;18200;48.726;8.892;2023-04-22T08:01:48;96152.31;;;28.41;28.99
31595;BME280;18200;48.726;8.892;2023-04-22T08:05:49;96150.19;;;28.76;28.01
31595;BME280;18200;48.726;8.892;2023-04-22T08:09:49;96157.66;;;28.70;26.96
31595;BME280;18200;48.726;8.892;2023-04-22T08:13:50;96147.66;;;28.53;26.44
31595;BME280;18200;48.726;8.892;2023-04-22T08:17:50;96146.97;;;28.32;26.14
31595;BME280;18200;48.726;8.892;2023-04-22T08:21:51;96138.69;;;28.83;26.38
31595;BME280;18200;48.726;8.892;2023-04-22T08:25:51;96138.94;;;29.17;26.01
31595;BME280;18200;48.726;8.892;2023-04-22T08:29:51;96143.66;;;28.28;26.43
31595;BME280;18200;48.726;8.892;2023-04-22T08:33:52;96134.19;;;29.65;25.13
31595;BME280;18200;48.726;8.892;2023-04-22T08:37:52;96128.38;;;30.11;24.57
31595;BME280;18200;48.726;8.892;2023-04-22T08:41:54;96127.50;;;30.69;24.49
31595;BME280;18200;48.726;8.892;2023-04-22T08:45:55;96124.97;;;31.32;23.93
31595;BME280;18200;48.726;8.892;2023-04-22T08:49:56;96123.16;;;31.62;24.24
31595;BME280;18200;48.726;8.892;2023-04-22T08:53:58;96129.47;;;31.68;23.76
31595;BME280;18200;48.726;8.892;2023-04-22T08:58:00;96114.91;;;32.55;22.75
31595;BME280;18200;48.726;8.892;2023-04-22T09:02:00;96128.50;;;32.64;23.09
31595;BME280;18200;48.726;8.892;2023-04-22T09:06:05;96117.97;;;32.46;22.81
31595;BME280;18200;48.726;8.892;2023-04-22T09:10:07;96122.28;;;32.82;22.48
31595;BME280;18200;48.726;8.892;2023-04-22T09:14:08;96119.03;;;32.43;22.47
31595;BME280;18200;48.726;8.892;2023-04-22T09:18:08;96113.63;;;32.91;22.62
31595;BME280;18200;48.726;8.892;2023-04-22T09:22:12;96105.81;;;33.19;21.65
31595;BME280;18200;48.726;8.892;2023-04-22T09:26:18;96107.78;;;33.24;21.75
31595;BME280;18200;48.726;8.892;2023-04-22T09:30:32;96109.41;;;33.38;21.68
31595;BME280;18200;48.726;8.892;2023-04-22T09:34:32;96110.09;;;33.44;21.02
31595;BME280;18200;48.726;8.892;2023-04-22T09:38:33;96104.97;;;33.00;22.29
31595;BME280;18200;48.726;8.892;2023-04-22T09:42:47;96111.28;;;33.79;20.42
31595;BME280;18200;48.726;8.892;2023-04-22T09:46:48;96102.53;;;33.88;20.97
31595;BME280;18200;48.726;8.892;2023-04-22T09:50:50;96092.94;;;34.26;19.64
31595;BME280;18200;48.726;8.892;2023-04-22T09:54:50;96086.88;;;34.59;19.42
31595;BME280;18200;48.726;8.892;2023-04-22T09:58:51;96082.53;;;35.08;19.07
31595;BME280;18200;48.726;8.892;2023-04-22T10:02:52;96083.81;;;33.64;20.21
31595;BME280;18200;48.726;8.892;2023-04-22T10:06:53;96082.94;;;34.68;18.17
31595;BME280;18200;48.726;8.892;2023-04-22T10:10:54;96084.50;;;34.13;18.71
31595;BME280;18200;48.726;8.892;2023-04-22T10:14:54;96084.66;;;35.47;17.77
31595;BME280;18200;48.726;8.892;2023-04-22T10:18:55;96072.69;;;35.47;18.70
31595;BME280;18200;48.726;8.892;2023-04-22T10:22:56;96061.06;;;35.43;17.47
31595;BME280;18200;48.726;8.892;2023-04-22T10:26:58;96068.84;;;35.63;17.10
31595;BME280;18200;48.726;8.892;2023-04-22T10:31:05;96061.53;;;35.73;17.53
31595;BME280;18200;48.726;8.892;2023-04-22T10:35:08;96055.06;;;36.25;16.46
31595;BME280;18200;48.726;8.892;2023-04-22T10:39:15;96070.16;;;34.03;18.93
31595;BME280;18200;48.726;8.892;2023-04-22T10:43:18;96071.50;;;35.16;18.04
31595;BME280;18200;48.726;8.892;2023-04-22T10:47:30;96064.53;;;35.75;17.47
31595;BME280;18200;48.726;8.892;2023-04-22T10:51:43;96058.72;;;35.60;17.88
31595;BME280;18200;48.726;8.892;2023-04-22T10:55:49;96077.72;;;35.09;18.51
31595;BME280;18200;48.726;8.892;2023-04-22T10:59:52;96061.84;;;36.29;17.20
31595;BME280;18200;48.726;8.892;2023-04-22T11:03:53;96066.44;;;33.95;18.48
31595;BME280;18200;48.726;8.892;2023-04-22T11:07:55;96075.03;;;35.17;18.49
31595;BME280;18200;48.726;8.892;2023-04-22T11:16:34;96085.16;;;34.88;18.44
31595;BME280;18200;48.726;8.892;2023-04-22T11:20:35;96071.38;;;36.47;17.73
31595;BME280;18200;48.726;8.892;2023-04-22T11:24:35;96066.63;;;36.76;16.75
31595;BME280;18200;48.726;8.892;2023-04-22T11:28:44;96074.19;;;37.58;15.77
31595;BME280;18200;48.726;8.892;2023-04-22T11:32:50;96059.59;;;37.03;16.63
31595;BME280;18200;48.726;8.892;2023-04-22T11:36:51;96069.84;;;33.88;18.89
31595;BME280;18200;48.726;8.892;2023-04-22T11:40:53;96064.28;;;35.34;17.93
31595;BME280;18200;48.726;8.892;2023-04-22T11:44:54;96061.28;;;35.32;18.46
31595;BME280;18200;48.726;8.892;2023-04-22T11:49:10;96058.91;;;35.88;17.86
31595;BME280;18200;48.726;8.892;2023-04-22T11:53:16;96055.03;;;35.78;17.81
31595;BME280;18200;48.726;8.892;2023-04-22T11:57:17;96058.34;;;34.66;19.43
31595;BME280;18200;48.726;8.892;2023-04-22T12:01:20;96058.25;;;34.21;17.70
31595;BME280;18200;48.726;8.892;2023-04-22T12:05:57;96048.72;;;35.38;16.29
31595;BME280;18200;48.726;8.892;2023-04-22T12:09:58;96055.09;;;34.12;17.78
31595;BME280;18200;48.726;8.892;2023-04-22T12:14:06;96065.97;;;31.89;19.16
31595;BME280;18200;48.726;8.892;2023-04-22T12:18:07;96060.31;;;32.46;18.14
31595;BME280;18200;48.726;8.892;2023-04-22T12:22:07;96064.13;;;34.55;17.21
31595;BME280;18200;48.726;8.892;2023-04-22T12:26:08;96073.34;;;34.13;18.33
31595;BME280;18200;48.726;8.892;2023-04-22T12:30:09;96061.75;;;32.64;18.87
31595;BME280;18200;48.726;8.892;2023-04-22T12:34:09;96074.78;;;31.93;20.07
31595;BME280;18200;48.726;8.892;2023-04-22T12:38:10;96067.13;;;33.83;18.14
31595;BME280;18200;48.726;8.892;2023-04-22T12:42:10;96074.22;;;34.21;17.76
31595;BME280;18200;48.726;8.892;2023-04-22T12:46:11;96073.91;;;34.43;17.50
31595;BME280;18200;48.726;8.892;2023-04-22T12:50:11;96075.13;;;32.95;19.16
31595;BME280;18200;48.726;8.892;2023-04-22T12:54:11;96077.28;;;32.48;19.52
31595;BME280;18200;48.726;8.892;2023-04-22T12:58:12;96079.56;;;31.24;21.10
31595;BME280;18200;48.726;8.892;2023-04-22T13:02:12;96076.34;;;30.92;20.73
31595;BME280;18200;48.726;8.892;2023-04-22T13:06:13;96094.19;;;31.41;20.68
31595;BME280;18200;48.726;8.892;2023-04-22T13:10:14;96090.34;;;32.59;19.57
31595;BME280;18200;48.726;8.892;2023-04-22T13:14:15;96078.25;;;32.86;18.48
31595;BME280;18200;48.726;8.892;2023-04-22T13:18:15;96081.16;;;32.29;19.48
31595;BME280;18200;48.726;8.892;2023-04-22T13:22:16;96092.19;;;30.36;21.21
31595;BME280;18200;48.726;8.892;2023-04-22T13:26:17;96072.25;;;32.00;20.62
31595;BME280;18200;48.726;8.892;2023-04-22T13:30:18;96074.19;;;32.87;19.76
31595;BME280;18200;48.726;8.892;2023-04-22T13:34:20;96065.84;;;32.17;20.44
31595;BME280;18200;48.726;8.892;2023-04-22T13:38:20;96075.94;;;31.62;20.75
31595;BME280;18200;48.726;8.892;2023-04-22T13:42:21;96063.78;;;31.65;21.50
31595;BME280;18200;48.726;8.892;2023-04-22T13:46:22;96068.94;;;31.33;21.14
31595;BME280;18200;48.726;8.892;2023-04-22T13:50:23;96056.31;;;31.27;21.38
31595;BME280;18200;48.726;8.892;2023-04-22T13:54:24;96059.81;;;31.55;21.37
31595;BME280;18200;48.726;8.892;2023-04-22T13:58:25;96056.47;;;31.68;21.25
31595;BME280;18200;48.726;8.892;2023-04-22T14:02:25;96047.41;;;31.62;21.36
31595;BME280;18200;48.726;8.892;2023-04-22T14:06:26;96058.03;;;32.50;20.84
31595;BME280;18200;48.726;8.892;2023-04-22T14:10:27;96061.56;;;31.53;22.10
31595;BME280;18200;48.726;8.892;2023-04-22T14:14:27;96041.28;;;32.21;20.66
31595;BME280;18200;48.726;8.892;2023-04-22T14:18:28;96057.56;;;32.76;20.93
31595;BME280;18200;48.726;8.892;2023-04-22T14:22:28;96056.09;;;31.25;22.85
31595;BME280;18200;48.726;8.892;2023-04-22T14:26:28;96053.63;;;30.38;23.81
31595;BME280;18200;48.726;8.892;2023-04-22T14:30:31;96056.81;;;30.09;23.98
31595;BME280;18200;48.726;8.892;2023-04-22T14:34:32;96043.28;;;30.55;22.80
31595;BME280;18200;48.726;8.892;2023-04-22T14:38:32;96039.75;;;30.72;22.67
31595;BME280;18200;48.726;8.892;2023-04-22T14:42:32;96044.31;;;30.86;22.88
31595;BME280;18200;48.726;8.892;2023-04-22T14:46:33;96034.69;;;31.83;21.82
31595;BME280;18200;48.726;8.892;2023-04-22T14:50:33;96030.56;;;32.36;21.50
31595;BME280;18200;48.726;8.892;2023-04-22T14:54:34;96040.88;;;32.05;21.82
31595;BME280;18200;48.726;8.892;2023-04-22T14:58:34;96044.28;;;30.97;22.33
31595;BME280;18200;48.726;8.892;2023-04-22T15:02:34;96041.59;;;32.11;21.60
31595;BME280;18200;48.726;8.892;2023-04-22T15:06:35;96041.44;;;31.98;21.83
31595;BME280;18200;48.726;8.892;2023-04-22T15:10:35;96037.25;;;32.22;22.17
31595;BME280;18200;48.726;8.892;2023-04-22T15:14:37;96036.22;;;32.89;20.66
31595;BME280;18200;48.726;8.892;2023-04-22T15:18:37;96030.50;;;33.06;21.16
31595;BME280;18200;48.726;8.892;2023-04-22T15:22:39;96026.59;;;32.26;21.44
31595;BME280;18200;48.726;8.892;2023-04-22T15:26:42;96029.22;;;33.55;20.04
31595;BME280;18200;48.726;8.892;2023-04-22T15:30:43;96033.50;;;34.31;19.67
31595;BME280;18200;48.726;8.892;2023-04-22T15:34:43;96033.78;;;34.46;19.24
31595;BME280;18200;48.726;8.892;2023-04-22T15:38:43;96044.06;;;34.38;20.05
31595;BME280;18200;48.726;8.892;2023-04-22T15:42:44;96042.25;;;34.41;19.79
31595;BME280;18200;48.726;8.892;2023-04-22T15:46:44;96043.28;;;34.37;19.25
31595;BME280;18200;48.726;8.892;2023-04-22T15:50:45;96046.66;;;33.99;19.73
31595;BME280;18200;48.726;8.892;2023-04-22T15:54:45;96048.47;;;33.78;20.55
31595;BME280;18200;48.726;8.892;2023-04-22T15:58:46;96050.22;;;33.56;20.04
31595;BME280;18200;48.726;8.892;2023-04-22T16:02:46;96043.47;;;33.22;20.34
31595;BME280;18200;48.726;8.892;2023-04-22T16:06:53;96046.63;;;34.36;20.35
31595;BME280;18200;48.726;8.892;2023-04-22T16:10:56;96045.81;;;33.42;20.58
31595;BME280;18200;48.726;8.892;2023-04-22T16:14:57;96044.97;;;33.72;20.64
31595;BME280;18200;48.726;8.892;2023-04-22T16:18:58;96039.09;;;34.31;19.52
31595;BME280;18200;48.726;8.892;2023-04-22T16:22:59;96054.09;;;33.91;20.28
31595;BME280;18200;48.726;8.892;2023-04-22T16:26:59;96043.47;;;33.89;20.57
31595;BME280;18200;48.726;8.892;2023-04-22T16:31:01;96042.41;;;34.29;19.84
31595;BME280;18200;48.726;8.892;2023-04-22T16:35:01;96050.72;;;34.35;20.03
31595;BME280;18200;48.726;8.892;2023-04-22T16:39:01;96045.69;;;34.47;19.35
31595;BME280;18200;48.726;8.892;2023-04-22T16:43:02;96045.69;;;34.47;19.84
31595;BME280;18200;48.726;8.892;2023-04-22T16:47:04;96040.13;;;34.47;19.42
31595;BME280;18200;48.726;8.892;2023-04-22T16:51:04;96046.47;;;34.47;19.98
31595;BME280;18200;48.726;8.892;2023-04-22T16:55:05;96052.63;;;33.66;20.79
31595;BME280;18200;48.726;8.892;2023-04-22T16:59:07;96039.53;;;33.12;20.73
31595;BME280;18200;48.726;8.892;2023-04-22T17:03:07;96044.00;;;33.45;20.36
31595;BME280;18200;48.726;8.892;2023-04-22T17:07:07;96047.13;;;32.17;22.35
31595;BME280;18200;48.726;8.892;2023-04-22T17:11:08;96060.19;;;33.89;19.95
31595;BME280;18200;48.726;8.892;2023-04-22T17:15:08;96056.00;;;34.01;19.82
31595;BME280;18200;48.726;8.892;2023-04-22T17:19:09;96062.69;;;32.72;21.50
31595;BME280;18200;48.726;8.892;2023-04-22T17:23:09;96065.69;;;32.74;21.08
31595;BME280;18200;48.726;8.892;2023-04-22T17:27:09;96068.06;;;32.24;21.42
31595;BME280;18200;48.726;8.892;2023-04-22T17:31:13;96078.81;;;31.12;22.95
31595;BME280;18200;48.726;8.892;2023-04-22T17:35:14;96097.59;;;29.07;25.84
31595;BME280;18200;48.726;8.892;2023-04-22T17:39:14;96107.78;;;30.28;24.80
31595;BME280;18200;48.726;8.892;2023-04-22T17:43:15;96115.00;;;29.50;26.58
31595;BME280;18200;48.726;8.892;2023-04-22T17:47:15;96099.97;;;28.83;28.79
31595;BME280;18200;48.726;8.892;2023-04-22T17:51:16;96114.00;;;28.54;29.96
31595;BME280;18200;48.726;8.892;2023-04-22T17:55:16;96122.09;;;28.32;29.97
31595;BME280;18200;48.726;8.892;2023-04-22T17:59:17;96125.94;;;27.19;31.22
31595;BME280;18200;48.726;8.892;2023-04-22T18:03:18;96131.34;;;29.11;29.46
31595;BME280;18200;48.726;8.892;2023-04-22T18:07:19;96139.84;;;29.39;29.04
31595;BME280;18200;48.726;8.892;2023-04-22T18:11:19;96145.31;;;27.59;31.08
31595;BME280;18200;48.726;8.892;2023-04-22T18:15:20;96149.28;;;28.39;30.10
31595;BME280;18200;48.726;8.892;2023-04-22T18:19:22;96155.81;;;28.36;29.73
31595;BME280;18200;48.726;8.892;2023-04-22T18:23:22;96156.84;;;29.58;28.68
31595;BME280;18200;48.726;8.892;2023-04-22T18:27:23;96159.25;;;29.13;29.82
31595;BME280;18200;48.726;8.892;2023-04-22T18:31:23;96173.34;;;27.93;30.30
31595;BME280;18200;48.726;8.892;2023-04-22T18:35:24;96181.75;;;27.98;30.25
31595;BME280;18200;48.726;8.892;2023-04-22T18:39:25;96187.59;;;26.72;31.97
31595;BME280;18200;48.726;8.892;2023-04-22T18:43:25;96190.03;;;27.98;30.37
31595;BME280;18200;48.726;8.892;2023-04-22T18:47:26;96184.03;;;28.97;29.22
31595;BME280;18200;48.726;8.892;2023-04-22T18:51:26;96193.41;;;30.15;28.01
31595;BME280;18200;48.726;8.892;2023-04-22T18:55:27;96185.09;;;30.26;27.93
31595;BME280;18200;48.726;8.892;2023-04-22T18:59:27;96185.31;;;28.96;29.62
31595;BME280;18200;48.726;8.892;2023-04-22T19:03:28;96184.44;;;28.84;29.08
31595;BME280;18200;48.726;8.892;2023-04-22T19:07:28;96191.16;;;30.25;28.06
31595;BME280;18200;48.726;8.892;2023-04-22T19:11:29;96180.16;;;29.14;28.83
31595;BME280;18200;48.726;8.892;2023-04-22T19:15:30;96189.53;;;29.96;28.20
31595;BME280;18200;48.726;8.892;2023-04-22T19:19:30;96186.28;;;30.03;28.08
31595;BME280;18200;48.726;8.892;2023-04-22T19:23:32;96182.72;;;29.97;28.19
31595;BME280;18200;48.726;8.892;2023-04-22T19:27:33;96192.09;;;29.26;28.75
31595;BME280;18200;48.726;8.892;2023-04-22T19:31:33;96180.03;;;29.66;27.76
31595;BME280;18200;48.726;8.892;2023-04-22T19:35:34;96179.25;;;28.66;29.12
31595;BME280;18200;48.726;8.892;2023-04-22T19:39:34;96172.41;;;29.92;27.39
31595;BME280;18200;48.726;8.892;2023-04-22T19:43:34;96163.56;;;29.14;28.47
31595;BME280;18200;48.726;8.892;2023-04-22T19:47:37;96148.13;;;29.34;27.20
31595;BME280;18200;48.726;8.892;2023-04-22T19:51:38;96179.44;;;27.97;29.75
31595;BME280;18200;48.726;8.892;2023-04-22T19:55:41;96180.88;;;29.09;28.10
31595;BME280;18200;48.726;8.892;2023-04-22T19:59:42;96164.50;;;29.37;27.82
31595;BME280;18200;48.726;8.892;2023-04-22T20:03:42;96159.78;;;29.85;27.53
31595;BME280;18200;48.726;8.892;2023-04-22T20:07:45;96154.44;;;29.82;26.63
31595;BME280;18200;48.726;8.892;2023-04-22T20:11:46;96152.19;;;29.80;27.04
31595;BME280;18200;48.726;8.892;2023-04-22T20:15:46;96142.34;;;29.74;27.07
31595;BME280;18200;48.726;8.892;2023-04-22T20:19:47;96146.66;;;29.80;27.14
31595;BME280;18200;48.726;8.892;2023-04-22T20:23:48;96146.41;;;29.84;26.87
31595;BME280;18200;48.726;8.892;2023-04-22T20:27:50;96150.69;;;29.85;27.13
31595;BME280;18200;48.726;8.892;2023-04-22T20:31:51;96157.03;;;29.97;27.45
31595;BME280;18200;48.726;8.892;2023-04-22T20:35:52;96150.97;;;29.87;27.40
31595;BME280;18200;48.726;8.892;2023-04-22T20:39:54;96150.91;;;29.81;27.22
31595;BME280;18200;48.726;8.892;2023-04-22T20:43:55;96148.13;;;29.76;27.45
31595;BME280;18200;48.726;8.892;2023-04-22T20:47:56;96150.13;;;29.75;28.16
31595;BME280;18200;48.726;8.892;2023-04-22T20:51:57;96158.59;;;29.61;28.17
31595;BME280;18200;48.726;8.892;2023-04-22T20:55:57;96158.19;;;29.73;27.01
31595;BME280;18200;48.726;8.892;2023-04-22T20:59:58;96138.09;;;29.42;27.33
31595;BME280;18200;48.726;8.892;2023-04-22T21:03:59;96148.72;;;29.49;27.84
31595;BME280;18200;48.726;8.892;2023-04-22T21:08:00;96146.72;;;28.81;29.68
31595;BME280;18200;48.726;8.892;2023-04-22T21:12:01;96161.88;;;28.20;30.64
31595;BME280;18200;48.726;8.892;2023-04-22T21:16:03;96158.31;;;28.85;29.68
31595;BME280;18200;48.726;8.892;2023-04-22T21:20:05;96162.72;;;29.34;28.19
31595;BME280;18200;48.726;8.892;2023-04-22T21:24:08;96157.22;;;29.40;27.90
31595;BME280;18200;48.726;8.892;2023-04-22T21:28:09;96162.69;;;29.29;27.89